sensor_id;sensor_type;location;lat;lon;timestamp;pressure;altitude;pressure_sealevel;temperature;humidity
68988;BME280;56038;46.080;11.116;2024-02-14T00:01:31;100056.13;;;5.60;97.37
68988;BME280;56038;46.080;11.116;2024-02-14T00:06:35;100063.97;;;5.54;98.36
68988;BME280;56038;46.080;11.116;2024-02-14T00:11:38;100067.47;;;5.47;100.00
68988;BME280;56038;46.080;11.116;2024-02-14T00:16:40;100073.56;;;5.43;100.00
68988;BME280;56038;46.080;11.116;2024-02-14T00:21:42;100080.44;;;5.45;100.00
68988;BME280;56038;46.080;11.116;2024-02-14T00:26:45;100082.13;;;5.49;99.09
68988;BME280;56038;46.080;11.116;2024-02-14T00:31:47;100089.13;;;5.41;98.84
68988;BME280;56038;46.080;11.116;2024-02-14T00:36:49;100082.25;;;5.38;100.00
68988;BME280;56038;46.080;11.116;2024-02-14T00:41:52;100085.63;;;5.47;100.00
68988;BME280;56038;46.080;11.116;2024-02-14T00:46:56;100083.84;;;5.52;99.22
68988;BME280;56038;46.080;11.116;2024-02-14T00:51:59;100091.59;;;5.55;98.71
68988;BME280;56038;46.080;11.116;2024-02-14T00:57:03;100090.75;;;5.53;98.27
68988;BME280;56038;46.080;11.116;2024-02-14T01:02:05;100095.06;;;5.51;100.00
68988;BME280;56038;46.080;11.116;2024-02-14T01:07:07;100082.13;;;5.49;100.00
68988;BME280;56038;46.080;11.116;2024-02-14T01:12:10;100089.09;;;5.44;100.00
68988;BME280;56038;46.080;11.116;2024-02-14T01:17:12;100093.47;;;5.39;100.00
68988;BME280;56038;46.080;11.116;2024-02-14T01:22:14;100091.75;;;5.33;100.00
68988;BME280;56038;46.080;11.116;2024-02-14T01:27:18;100095.25;;;5.29;100.00
68988;BME280;56038;46.080;11.116;2024-02-14T01:32:22;100090.13;;;5.20;100.00
68988;BME280;56038;46.080;11.116;2024-02-14T01:37:23;100095.38;;;5.11;100.00
68988;BME280;56038;46.080;11.116;2024-02-14T01:42:26;100099.69;;;5.12;100.00
68988;BME280;56038;46.080;11.116;2024-02-14T01:47:28;100097.94;;;5.13;100.00
68988;BME280;56038;46.080;11.116;2024-02-14T01:52:32;100104.00;;;5.10;100.00
68988;BME280;56038;46.080;11.116;2024-02-14T01:57:38;100110.03;;;5.14;100.00
68988;BME280;56038;46.080;11.116;2024-02-14T02:02:40;100105.78;;;5.05;100.00
68988;BME280;56038;46.080;11.116;2024-02-14T02:07:43;100110.16;;;4.92;100.00
68988;BME280;56038;46.080;11.116;2024-02-14T02:12:48;100112.78;;;4.89;100.00
68988;BME280;56038;46.080;11.116;2024-02-14T02:17:51;100106.78;;;4.78;100.00
68988;BME280;56038;46.080;11.116;2024-02-14T02:22:55;100117.97;;;4.80;100.00
68988;BME280;56038;46.080;11.116;2024-02-14T02:27:56;100116.28;;;4.74;100.00
68988;BME280;56038;46.080;11.116;2024-02-14T02:32:58;100120.63;;;4.74;100.00
68988;BME280;56038;46.080;11.116;2024-02-14T02:38:02;100120.63;;;4.69;100.00
68988;BME280;56038;46.080;11.116;2024-02-14T02:43:04;100129.28;;;4.64;100.00
68988;BME280;56038;46.080;11.116;2024-02-14T02:48:07;100126.69;;;4.56;100.00
68988;BME280;56038;46.080;11.116;2024-02-14T02:53:10;100130.16;;;4.55;100.00
68988;BME280;56038;46.080;11.116;2024-02-14T02:58:11;100125.88;;;4.51;100.00
68988;BME280;56038;46.080;11.116;2024-02-14T03:03:14;100133.59;;;4.57;100.00
68988;BME280;56038;46.080;11.116;2024-02-14T03:08:17;100137.91;;;4.60;100.00
68988;BME280;56038;46.080;11.116;2024-02-14T03:13:20;100143.09;;;4.54;100.00
68988;BME280;56038;46.080;11.116;2024-02-14T03:18:22;100152.59;;;4.50;100.00
68988;BME280;56038;46.080;11.116;2024-02-14T03:23:25;100159.53;;;4.45;100.00
68988;BME280;56038;46.080;11.116;2024-02-14T03:28:28;100154.34;;;4.45;100.00
68988;BME280;56038;46.080;11.116;2024-02-14T03:33:30;100160.34;;;4.53;100.00
68988;BME280;56038;46.080;11.116;2024-02-14T03:38:33;100168.97;;;4.61;100.00
68988;BME280;56038;46.080;11.116;2024-02-14T03:43:35;100167.19;;;4.68;100.00
68988;BME280;56038;46.080;11.116;2024-02-14T03:48:37;100164.59;;;4.71;100.00
68988;BME280;56038;46.080;11.116;2024-02-14T03:53:40;100168.91;;;4.76;100.00
68988;BME280;56038;46.080;11.116;2024-02-14T03:58:41;100180.91;;;4.87;100.00
68988;BME280;56038;46.080;11.116;2024-02-14T04:03:43;100174.88;;;4.86;100.00
68988;BME280;56038;46.080;11.116;2024-02-14T04:08:46;100174.03;;;4.82;100.00
68988;BME280;56038;46.080;11.116;2024-02-14T04:13:48;100172.31;;;4.89;100.00
68988;BME280;56038;46.080;11.116;2024-02-14T04:18:50;100180.91;;;4.94;100.00
68988;BME280;56038;46.080;11.116;2024-02-14T04:23:56;100177.47;;;4.85;100.00
68988;BME280;56038;46.080;11.116;2024-02-14T04:28:57;100180.09;;;4.81;100.00
68988;BME280;56038;46.080;11.116;2024-02-14T04:33:59;100175.78;;;4.82;100.00
68988;BME280;56038;46.080;11.116;2024-02-14T04:39:02;100174.06;;;4.79;100.00
68988;BME280;56038;46.080;11.116;2024-02-14T04:44:04;100181.81;;;4.79;100.00
68988;BME280;56038;46.080;11.116;2024-02-14T04:49:07;100186.16;;;4.77;100.00
68988;BME280;56038;46.080;11.116;2024-02-14T04:54:11;100185.28;;;4.72;100.00
68988;BME280;56038;46.080;11.116;2024-02-14T04:59:14;100169.81;;;4.63;100.00
68988;BME280;56038;46.080;11.116;2024-02-14T05:04:15;100177.56;;;4.63;100.00
68988;BME280;56038;46.080;11.116;2024-02-14T05:09:19;100188.75;;;4.70;100.00
68988;BME280;56038;46.080;11.116;2024-02-14T05:14:21;100187.06;;;4.63;100.00
68988;BME280;56038;46.080;11.116;2024-02-14T05:19:23;100189.66;;;4.60;100.00
68988;BME280;56038;46.080;11.116;2024-02-14T05:24:27;100192.25;;;4.54;100.00
68988;BME280;56038;46.080;11.116;2024-02-14T05:29:29;100193.13;;;4.48;100.00
68988;BME280;56038;46.080;11.116;2024-02-14T05:34:31;100188.84;;;4.45;100.00
68988;BME280;56038;46.080;11.116;2024-02-14T05:39:34;100197.44;;;4.41;100.00
68988;BME280;56038;46.080;11.116;2024-02-14T05:44:36;100207.81;;;4.37;100.00
68988;BME280;56038;46.080;11.116;2024-02-14T05:49:38;100207.81;;;4.34;100.00
68988;BME280;56038;46.080;11.116;2024-02-14T05:54:41;100208.69;;;4.33;100.00
68988;BME280;56038;46.080;11.116;2024-02-14T05:59:43;100221.63;;;4.31;100.00
68988;BME280;56038;46.080;11.116;2024-02-14T06:04:44;100219.03;;;4.22;100.00
68988;BME280;56038;46.080;11.116;2024-02-14T06:09:48;100224.22;;;4.19;100.00
68988;BME280;56038;46.080;11.116;2024-02-14T06:14:49;100226.78;;;4.17;100.00
68988;BME280;56038;46.080;11.116;2024-02-14T06:19:51;100235.44;;;4.12;100.00
68988;BME280;56038;46.080;11.116;2024-02-14T06:24:54;100234.56;;;4.11;100.00
68988;BME280;56038;46.080;11.116;2024-02-14T06:29:56;100250.94;;;4.10;100.00
68988;BME280;56038;46.080;11.116;2024-02-14T06:34:59;100256.09;;;4.16;100.00
68988;BME280;56038;46.080;11.116;2024-02-14T06:40:04;100250.94;;;4.19;100.00
68988;BME280;56038;46.080;11.116;2024-02-14T06:45:09;100250.06;;;4.19;100.00
68988;BME280;56038;46.080;11.116;2024-02-14T06:50:10;100259.53;;;4.18;100.00
68988;BME280;56038;46.080;11.116;2024-02-14T06:55:13;100270.75;;;4.11;100.00
68988;BME280;56038;46.080;11.116;2024-02-14T07:00:16;100275.94;;;4.11;100.00
68988;BME280;56038;46.080;11.116;2024-02-14T07:05:17;100277.66;;;4.20;100.00
68988;BME280;56038;46.080;11.116;2024-02-14T07:10:21;100281.09;;;4.27;100.00
68988;BME280;56038;46.080;11.116;2024-02-14T07:15:22;100280.25;;;4.29;100.00
68988;BME280;56038;46.080;11.116;2024-02-14T07:20:28;100294.88;;;4.18;100.00
68988;BME280;56038;46.080;11.116;2024-02-14T07:25:31;100293.16;;;4.12;100.00
68988;BME280;56038;46.080;11.116;2024-02-14T07:30:33;100292.28;;;4.24;100.00
68988;BME280;56038;46.080;11.116;2024-02-14T07:35:36;100297.47;;;4.32;100.00
68988;BME280;56038;46.080;11.116;2024-02-14T07:40:39;100306.09;;;4.44;100.00
68988;BME280;56038;46.080;11.116;2024-02-14T07:45:42;100319.00;;;4.70;100.00
68988;BME280;56038;46.080;11.116;2024-02-14T07:50:43;100328.47;;;4.93;100.00
68988;BME280;56038;46.080;11.116;2024-02-14T07:55:46;100339.66;;;5.08;100.00
68988;BME280;56038;46.080;11.116;2024-02-14T08:00:49;100336.16;;;5.25;99.74
68988;BME280;56038;46.080;11.116;2024-02-14T08:05:51;100341.28;;;5.40;97.75
68988;BME280;56038;46.080;11.116;2024-02-14T08:10:54;100352.44;;;5.62;96.29
68988;BME280;56038;46.080;11.116;2024-02-14T08:15:56;100341.97;;;5.80;93.63
68988;BME280;56038;46.080;11.116;2024-02-14T08:20:58;100348.81;;;5.98;92.72
68988;BME280;56038;46.080;11.116;2024-02-14T08:26:01;100350.50;;;6.07;90.37
68988;BME280;56038;46.080;11.116;2024-02-14T08:31:10;100358.16;;;6.23;88.41
68988;BME280;56038;46.080;11.116;2024-02-14T08:36:12;100345.03;;;6.43;87.75
68988;BME280;56038;46.080;11.116;2024-02-14T08:41:15;100345.66;;;6.74;87.20
68988;BME280;56038;46.080;11.116;2024-02-14T08:46:18;100328.19;;;6.91;82.22
68988;BME280;56038;46.080;11.116;2024-02-14T08:51:20;100322.78;;;7.11;81.57
68988;BME280;56038;46.080;11.116;2024-02-14T08:56:24;100321.66;;;7.35;79.49
68988;BME280;56038;46.080;11.116;2024-02-14T09:01:25;100321.38;;;7.58;72.77
68988;BME280;56038;46.080;11.116;2024-02-14T09:06:27;100314.16;;;7.78;73.09
68988;BME280;56038;46.080;11.116;2024-02-14T09:11:30;100312.69;;;8.21;70.61
68988;BME280;56038;46.080;11.116;2024-02-14T09:16:32;100312.22;;;8.51;69.01
68988;BME280;56038;46.080;11.116;2024-02-14T09:21:34;100311.34;;;9.02;67.21
68988;BME280;56038;46.080;11.116;2024-02-14T09:26:38;100312.28;;;9.82;63.38
68988;BME280;56038;46.080;11.116;2024-02-14T09:31:40;100303.91;;;10.07;59.68
68988;BME280;56038;46.080;11.116;2024-02-14T09:36:42;100311.41;;;10.20;61.47
68988;BME280;56038;46.080;11.116;2024-02-14T09:41:49;100308.38;;;10.39;56.25
68988;BME280;56038;46.080;11.116;2024-02-14T09:46:52;100296.78;;;10.85;59.48
68988;BME280;56038;46.080;11.116;2024-02-14T09:51:56;100291.28;;;11.26;54.56
68988;BME280;56038;46.080;11.116;2024-02-14T09:57:00;100286.03;;;11.57;56.71
68988;BME280;56038;46.080;11.116;2024-02-14T10:02:03;100297.53;;;11.81;55.45
68988;BME280;56038;46.080;11.116;2024-02-14T10:07:05;100291.53;;;12.34;54.11
68988;BME280;56038;46.080;11.116;2024-02-14T10:12:08;100286.84;;;12.43;53.61
68988;BME280;56038;46.080;11.116;2024-02-14T10:17:17;100284.31;;;12.40;49.36
68988;BME280;56038;46.080;11.116;2024-02-14T10:22:19;100274.84;;;12.63;52.09
68988;BME280;56038;46.080;11.116;2024-02-14T10:27:22;100261.25;;;12.76;51.00
68988;BME280;56038;46.080;11.116;2024-02-14T10:32:23;100251.97;;;13.16;51.01
68988;BME280;56038;46.080;11.116;2024-02-14T10:37:26;100244.34;;;13.57;49.62
68988;BME280;56038;46.080;11.116;2024-02-14T10:42:31;100229.41;;;13.81;48.46
68988;BME280;56038;46.080;11.116;2024-02-14T10:47:36;100212.94;;;14.19;47.65
68988;BME280;56038;46.080;11.116;2024-02-14T10:52:41;100213.16;;;14.35;46.93
68988;BME280;56038;46.080;11.116;2024-02-14T10:57:45;100201.16;;;14.50;45.96
68988;BME280;56038;46.080;11.116;2024-02-14T11:02:48;100187.56;;;14.60;46.07
68988;BME280;56038;46.080;11.116;2024-02-14T11:07:51;100171.66;;;15.03;45.10
68988;BME280;56038;46.080;11.116;2024-02-14T11:12:55;100167.72;;;15.30;44.35
68988;BME280;56038;46.080;11.116;2024-02-14T11:18:04;100160.38;;;16.10;51.54
68988;BME280;56038;46.080;11.116;2024-02-14T11:23:07;100155.59;;;17.18;49.85
68988;BME280;56038;46.080;11.116;2024-02-14T11:28:16;100153.56;;;17.23;42.36
68988;BME280;56038;46.080;11.116;2024-02-14T11:33:22;100141.44;;;17.82;42.43
68988;BME280;56038;46.080;11.116;2024-02-14T11:38:25;100141.16;;;18.02;40.71
68988;BME280;56038;46.080;11.116;2024-02-14T11:43:28;100139.50;;;17.85;39.84
68988;BME280;56038;46.080;11.116;2024-02-14T11:48:30;100134.13;;;17.87;40.13
68988;BME280;56038;46.080;11.116;2024-02-14T11:53:32;100130.38;;;17.59;39.96
68988;BME280;56038;46.080;11.116;2024-02-14T11:58:35;100132.00;;;17.30;39.96
68988;BME280;56038;46.080;11.116;2024-02-14T12:03:37;100120.94;;;17.24;40.13
68988;BME280;56038;46.080;11.116;2024-02-14T12:08:39;100116.50;;;17.72;39.19
68988;BME280;56038;46.080;11.116;2024-02-14T12:13:43;100112.72;;;17.60;38.54
68988;BME280;56038;46.080;11.116;2024-02-14T12:18:47;100111.41;;;17.53;38.47
68988;BME280;56038;46.080;11.116;2024-02-14T12:23:49;100110.19;;;17.74;37.83
68988;BME280;56038;46.080;11.116;2024-02-14T12:29:02;100111.31;;;18.14;36.36
68988;BME280;56038;46.080;11.116;2024-02-14T12:34:05;100097.66;;;18.22;36.59
68988;BME280;56038;46.080;11.116;2024-02-14T12:39:07;100088.63;;;18.40;36.51
68988;BME280;56038;46.080;11.116;2024-02-14T12:44:14;100089.94;;;18.62;36.03
68988;BME280;56038;46.080;11.116;2024-02-14T12:49:15;100095.81;;;18.95;35.24
68988;BME280;56038;46.080;11.116;2024-02-14T12:54:17;100091.91;;;19.15;34.80
68988;BME280;56038;46.080;11.116;2024-02-14T12:59:20;100085.22;;;18.52;34.88
68988;BME280;56038;46.080;11.116;2024-02-14T13:04:23;100071.69;;;18.29;35.14
68988;BME280;56038;46.080;11.116;2024-02-14T13:09:24;100079.09;;;18.52;35.05
68988;BME280;56038;46.080;11.116;2024-02-14T13:14:27;100066.31;;;18.44;35.20
68988;BME280;56038;46.080;11.116;2024-02-14T13:19:32;100058.28;;;18.17;34.95
68988;BME280;56038;46.080;11.116;2024-02-14T13:24:34;100061.81;;;17.88;35.17
68988;BME280;56038;46.080;11.116;2024-02-14T13:29:37;100047.69;;;18.03;34.69
68988;BME280;56038;46.080;11.116;2024-02-14T13:34:39;100038.16;;;18.01;34.83
68988;BME280;56038;46.080;11.116;2024-02-14T13:39:41;100031.22;;;17.54;35.88
68988;BME280;56038;46.080;11.116;2024-02-14T13:44:45;100025.59;;;17.44;35.89
68988;BME280;56038;46.080;11.116;2024-02-14T13:49:47;100019.69;;;17.25;36.13
68988;BME280;56038;46.080;11.116;2024-02-14T13:54:49;100016.91;;;16.32;36.70
68988;BME280;56038;46.080;11.116;2024-02-14T13:59:52;100014.34;;;16.30;37.03
68988;BME280;56038;46.080;11.116;2024-02-14T14:04:54;100003.72;;;16.32;36.90
68988;BME280;56038;46.080;11.116;2024-02-14T14:09:56;100007.56;;;16.09;37.23
68988;BME280;56038;46.080;11.116;2024-02-14T14:15:01;100018.44;;;15.85;37.31
68988;BME280;56038;46.080;11.116;2024-02-14T14:20:04;100021.06;;;15.51;38.06
68988;BME280;56038;46.080;11.116;2024-02-14T14:25:08;100027.09;;;15.36;38.50
68988;BME280;56038;46.080;11.116;2024-02-14T14:30:12;100021.66;;;15.21;38.61
68988;BME280;56038;46.080;11.116;2024-02-14T14:35:14;100023.28;;;14.88;38.86
68988;BME280;56038;46.080;11.116;2024-02-14T14:40:16;100027.31;;;14.76;38.76
68988;BME280;56038;46.080;11.116;2024-02-14T14:45:19;100024.47;;;14.62;39.66
68988;BME280;56038;46.080;11.116;2024-02-14T14:50:21;100020.00;;;14.45;39.76
68988;BME280;56038;46.080;11.116;2024-02-14T14:55:23;100019.63;;;14.14;41.21
68988;BME280;56038;46.080;11.116;2024-02-14T15:00:26;100021.69;;;13.87;41.07
68988;BME280;56038;46.080;11.116;2024-02-14T15:05:28;100019.25;;;13.41;42.00
68988;BME280;56038;46.080;11.116;2024-02-14T15:10:30;100023.97;;;12.88;43.08
68988;BME280;56038;46.080;11.116;2024-02-14T15:15:33;100011.94;;;12.60;44.05
68988;BME280;56038;46.080;11.116;2024-02-14T15:20:35;100018.00;;;12.39;44.48
68988;BME280;56038;46.080;11.116;2024-02-14T15:25:38;100026.00;;;12.11;45.50
68988;BME280;56038;46.080;11.116;2024-02-14T15:30:41;100031.16;;;11.89;46.35
68988;BME280;56038;46.080;11.116;2024-02-14T15:36:00;100044.84;;;11.71;47.28
68988;BME280;56038;46.080;11.116;2024-02-14T15:41:02;100041.94;;;11.54;48.02
68988;BME280;56038;46.080;11.116;2024-02-14T15:46:06;100046.88;;;11.36;48.82
68988;BME280;56038;46.080;11.116;2024-02-14T15:51:07;100043.44;;;11.34;48.60
68988;BME280;56038;46.080;11.116;2024-02-14T15:56:09;100056.88;;;11.24;48.92
68988;BME280;56038;46.080;11.116;2024-02-14T16:01:13;100041.66;;;11.08;49.43
68988;BME280;56038;46.080;11.116;2024-02-14T16:06:17;100049.81;;;10.98;49.94
68988;BME280;56038;46.080;11.116;2024-02-14T16:11:19;100053.59;;;10.89;50.94
68988;BME280;56038;46.080;11.116;2024-02-14T16:16:22;100058.13;;;10.83;50.96
68988;BME280;56038;46.080;11.116;2024-02-14T16:21:24;100064.13;;;10.86;54.71
68988;BME280;56038;46.080;11.116;2024-02-14T16:26:25;100063.66;;;10.72;53.57
68988;BME280;56038;46.080;11.116;2024-02-14T16:31:29;100068.47;;;10.58;53.32
68988;BME280;56038;46.080;11.116;2024-02-14T16:36:30;100061.09;;;10.41;54.10
68988;BME280;56038;46.080;11.116;2024-02-14T16:41:32;100077.75;;;10.37;53.83
68988;BME280;56038;46.080;11.116;2024-02-14T16:46:35;100082.56;;;10.19;54.60
68988;BME280;56038;46.080;11.116;2024-02-14T16:51:37;100087.28;;;10.05;55.31
68988;BME280;56038;46.080;11.116;2024-02-14T16:56:39;100094.31;;;10.03;55.69
68988;BME280;56038;46.080;11.116;2024-02-14T17:01:42;100104.84;;;10.00;55.32
68988;BME280;56038;46.080;11.116;2024-02-14T17:06:44;100106.94;;;9.86;56.52
68988;BME280;56038;46.080;11.116;2024-02-14T17:11:46;100100.31;;;9.73;56.85
68988;BME280;56038;46.080;11.116;2024-02-14T17:16:49;100122.13;;;9.70;57.24
68988;BME280;56038;46.080;11.116;2024-02-14T17:21:53;100128.56;;;9.55;58.41
68988;BME280;56038;46.080;11.116;2024-02-14T17:26:56;100132.25;;;9.45;59.53
68988;BME280;56038;46.080;11.116;2024-02-14T17:31:59;100143.75;;;9.38;60.71
68988;BME280;56038;46.080;11.116;2024-02-14T17:37:01;100147.06;;;9.45;59.46
68988;BME280;56038;46.080;11.116;2024-02-14T17:42:03;100158.63;;;9.33;60.78
68988;BME280;56038;46.080;11.116;2024-02-14T17:47:06;100152.84;;;9.20;62.51
68988;BME280;56038;46.080;11.116;2024-02-14T17:52:08;100159.16;;;9.09;63.40
68988;BME280;56038;46.080;11.116;2024-02-14T17:57:09;100168.72;;;9.08;64.33
68988;BME280;56038;46.080;11.116;2024-02-14T18:02:13;100171.50;;;9.00;65.43
68988;BME280;56038;46.080;11.116;2024-02-14T18:07:15;100163.69;;;8.99;66.44
68988;BME280;56038;46.080;11.116;2024-02-14T18:12:16;100169.22;;;8.85;66.52
68988;BME280;56038;46.080;11.116;2024-02-14T18:17:21;100170.91;;;8.88;66.97
68988;BME280;56038;46.080;11.116;2024-02-14T18:22:22;100173.56;;;8.83;68.50
68988;BME280;56038;46.080;11.116;2024-02-14T18:27:24;100177.94;;;8.84;67.37
68988;BME280;56038;46.080;11.116;2024-02-14T18:32:29;100171.06;;;8.79;67.40
68988;BME280;56038;46.080;11.116;2024-02-14T18:37:31;100174.69;;;8.73;67.87
68988;BME280;56038;46.080;11.116;2024-02-14T18:42:33;100186.94;;;8.66;67.79
68988;BME280;56038;46.080;11.116;2024-02-14T18:47:36;100185.22;;;8.65;67.53
68988;BME280;56038;46.080;11.116;2024-02-14T18:52:38;100177.66;;;8.52;68.67
68988;BME280;56038;46.080;11.116;2024-02-14T18:57:40;100177.00;;;8.42;70.09
68988;BME280;56038;46.080;11.116;2024-02-14T19:02:43;100187.53;;;8.34;70.81
68988;BME280;56038;46.080;11.116;2024-02-14T19:07:45;100186.84;;;8.23;72.14
68988;BME280;56038;46.080;11.116;2024-02-14T19:12:48;100190.50;;;8.13;72.80
68988;BME280;56038;46.080;11.116;2024-02-14T19:17:51;100191.47;;;8.07;73.61
68988;BME280;56038;46.080;11.116;2024-02-14T19:22:53;100189.91;;;7.96;74.29
68988;BME280;56038;46.080;11.116;2024-02-14T19:27:55;100187.50;;;7.84;75.71
68988;BME280;56038;46.080;11.116;2024-02-14T19:32:59;100196.34;;;7.73;76.86
68988;BME280;56038;46.080;11.116;2024-02-14T19:38:00;100199.03;;;7.67;77.58
68988;BME280;56038;46.080;11.116;2024-02-14T19:43:02;100210.38;;;7.63;78.28
68988;BME280;56038;46.080;11.116;2024-02-14T19:48:06;100213.06;;;7.56;79.01
68988;BME280;56038;46.080;11.116;2024-02-14T19:53:09;100218.34;;;7.51;79.31
68988;BME280;56038;46.080;11.116;2024-02-14T19:58:11;100213.66;;;7.73;89.33
68988;BME280;56038;46.080;11.116;2024-02-14T20:03:14;100225.19;;;7.55;86.31
68988;BME280;56038;46.080;11.116;2024-02-14T20:08:16;100220.34;;;7.32;88.03
68988;BME280;56038;46.080;11.116;2024-02-14T20:13:19;100220.47;;;7.21;88.13
68988;BME280;56038;46.080;11.116;2024-02-14T20:18:22;100237.84;;;7.16;87.92
68988;BME280;56038;46.080;11.116;2024-02-14T20:23:24;100246.63;;;7.06;89.91
68988;BME280;56038;46.080;11.116;2024-02-14T20:28:25;100242.41;;;6.99;88.92
68988;BME280;56038;46.080;11.116;2024-02-14T20:33:28;100241.63;;;6.89;90.06
68988;BME280;56038;46.080;11.116;2024-02-14T20:38:30;100251.22;;;6.84;90.45
68988;BME280;56038;46.080;11.116;2024-02-14T20:43:33;100240.91;;;6.77;90.88
68988;BME280;56038;46.080;11.116;2024-02-14T20:48:36;100248.66;;;6.78;90.81
68988;BME280;56038;46.080;11.116;2024-02-14T20:53:39;100241.84;;;6.71;91.71
68988;BME280;56038;46.080;11.116;2024-02-14T20:58:40;100240.25;;;6.56;93.36
68988;BME280;56038;46.080;11.116;2024-02-14T21:03:44;100242.09;;;6.45;94.95
68988;BME280;56038;46.080;11.116;2024-02-14T21:08:45;100243.00;;;6.41;94.69
68988;BME280;56038;46.080;11.116;2024-02-14T21:13:47;100260.34;;;6.36;96.36
68988;BME280;56038;46.080;11.116;2024-02-14T21:18:51;100251.78;;;6.26;98.08
68988;BME280;56038;46.080;11.116;2024-02-14T21:23:53;100258.72;;;6.23;98.82
68988;BME280;56038;46.080;11.116;2024-02-14T21:28:55;100262.25;;;6.16;99.03
68988;BME280;56038;46.080;11.116;2024-02-14T21:33:58;100265.72;;;6.12;99.84
68988;BME280;56038;46.080;11.116;2024-02-14T21:39:02;100265.75;;;6.09;100.00
68988;BME280;56038;46.080;11.116;2024-02-14T21:44:06;100267.50;;;6.08;100.00
68988;BME280;56038;46.080;11.116;2024-02-14T21:49:10;100264.00;;;6.11;98.88
68988;BME280;56038;46.080;11.116;2024-02-14T21:54:20;100260.59;;;6.07;99.50
68988;BME280;56038;46.080;11.116;2024-02-14T21:59:21;100264.06;;;6.05;99.64
68988;BME280;56038;46.080;11.116;2024-02-14T22:04:26;100253.75;;;5.94;100.00
68988;BME280;56038;46.080;11.116;2024-02-14T22:09:28;100246.03;;;5.86;100.00
68988;BME280;56038;46.080;11.116;2024-02-14T22:14:30;100238.25;;;5.83;100.00
68988;BME280;56038;46.080;11.116;2024-02-14T22:19:34;100253.81;;;5.82;100.00
68988;BME280;56038;46.080;11.116;2024-02-14T22:24:38;100262.53;;;5.71;100.00
68988;BME280;56038;46.080;11.116;2024-02-14T22:29:40;100263.41;;;5.66;100.00
68988;BME280;56038;46.080;11.116;2024-02-14T22:34:43;100267.78;;;5.59;100.00
68988;BME280;56038;46.080;11.116;2024-02-14T22:39:45;100270.44;;;5.46;100.00
68988;BME280;56038;46.080;11.116;2024-02-14T22:44:47;100276.53;;;5.40;100.00
68988;BME280;56038;46.080;11.116;2024-02-14T22:49:50;100271.38;;;5.29;100.00
68988;BME280;56038;46.080;11.116;2024-02-14T22:54:52;100291.25;;;5.27;100.00
68988;BME280;56038;46.080;11.116;2024-02-14T22:59:54;100300.75;;;5.25;100.00
68988;BME280;56038;46.080;11.116;2024-02-14T23:04:57;100295.59;;;5.19;100.00
68988;BME280;56038;46.080;11.116;2024-02-14T23:09:59;100296.47;;;5.14;100.00
68988;BME280;56038;46.080;11.116;2024-02-14T23:15:01;100289.59;;;5.09;100.00
68988;BME280;56038;46.080;11.116;2024-02-14T23:20:08;100290.47;;;5.10;100.00
68988;BME280;56038;46.080;11.116;2024-02-14T23:25:12;100292.22;;;5.05;100.00
68988;BME280;56038;46.080;11.116;2024-02-14T23:30:14;100284.44;;;4.99;100.00
68988;BME280;56038;46.080;11.116;2024-02-14T23:35:17;100291.31;;;5.01;100.00
68988;BME280;56038;46.080;11.116;2024-02-14T23:40:19;100296.50;;;5.01;100.00
68988;BME280;56038;46.080;11.116;2024-02-14T23:45:21;100290.47;;;5.01;100.00
68988;BME280;56038;46.080;11.116;2024-02-14T23:50:24;100288.75;;;5.00;100.00
68988;BME280;56038;46.080;11.116;2024-02-14T23:55:27;100290.47;;;5.01;100.00
